createdAt,value
2018-11-13T00:02:23.014Z,61.53
2018-11-13T00:04:57.566Z,40.60
2018-11-13T00:07:31.988Z,42.67
2018-11-13T00:10:07.780Z,42.50
2018-11-13T00:12:42.707Z,43.70
2018-11-13T00:15:17.340Z,38.73
2018-11-13T00:17:51.684Z,40.47
2018-11-13T00:20:26.247Z,38.30
2018-11-13T00:23:00.919Z,40.37
2018-11-13T00:25:35.582Z,39.80
2018-11-13T00:28:10.198Z,35.47
2018-11-13T00:30:44.662Z,39.43
2018-11-13T00:33:19.427Z,35.63
2018-11-13T00:35:54.208Z,35.57
2018-11-13T00:38:28.630Z,39.53
2018-11-13T00:41:03.214Z,36.93
2018-11-13T00:43:37.788Z,38.00
2018-11-13T00:46:12.452Z,44.77
2018-11-13T00:48:46.991Z,41.00
2018-11-13T00:51:22.964Z,43.20
2018-11-13T00:53:57.555Z,42.10
2018-11-13T00:56:32.194Z,42.70
2018-11-13T00:59:07.019Z,35.43
2018-11-13T01:01:41.846Z,43.13
2018-11-13T01:04:16.410Z,38.33
2018-11-13T01:06:51.033Z,37.93
2018-11-13T01:09:25.648Z,42.63
2018-11-13T01:12:00.350Z,36.90
2018-11-13T01:14:35.081Z,41.50
2018-11-13T01:17:09.547Z,39.23
2018-11-13T01:19:44.051Z,43.10
2018-11-13T01:22:18.690Z,40.90
2018-11-13T01:24:53.242Z,38.73
2018-11-13T01:27:27.889Z,40.93
2018-11-13T01:30:02.352Z,42.23
2018-11-13T01:32:38.447Z,45.20
2018-11-13T01:35:14.488Z,39.47
2018-11-13T01:37:48.925Z,41.87
2018-11-13T01:40:23.486Z,43.60
2018-11-13T01:42:58.071Z,42.27
2018-11-13T01:45:32.786Z,39.70
2018-11-13T01:48:08.031Z,41.67
2018-11-13T01:50:41.850Z,42.40
2018-11-13T01:53:16.493Z,47.13
2018-11-13T01:55:51.100Z,42.53
2018-11-13T01:58:25.762Z,39.40
2018-11-13T02:01:00.326Z,42.57
2018-11-13T02:03:34.845Z,45.00
2018-11-13T02:06:09.405Z,45.80
2018-11-13T02:08:43.790Z,44.17
2018-11-13T02:11:18.201Z,43.00
2018-11-13T02:13:52.755Z,44.07
2018-11-13T02:16:27.257Z,43.07
2018-11-13T02:19:01.853Z,40.40
2018-11-13T02:21:36.482Z,43.83
2018-11-13T02:24:11.146Z,41.83
2018-11-13T02:26:45.643Z,46.33
2018-11-13T02:29:20.132Z,44.80
2018-11-13T02:31:54.601Z,50.47
2018-11-13T02:34:29.122Z,51.50
2018-11-13T02:37:03.413Z,50.07
2018-11-13T02:39:37.945Z,41.87
2018-11-13T02:42:12.442Z,41.90
2018-11-13T02:44:47.197Z,47.00
2018-11-13T02:47:23.138Z,42.43
2018-11-13T02:49:57.635Z,48.40
2018-11-13T02:52:32.321Z,49.10
2018-11-13T02:55:07.277Z,47.00
2018-11-13T02:57:42.538Z,43.27
2018-11-13T03:00:18.284Z,46.90
2018-11-13T03:02:53.409Z,55.77
2018-11-13T03:05:28.053Z,52.43
2018-11-13T03:08:02.613Z,45.83
2018-11-13T03:10:37.273Z,49.93
2018-11-13T03:13:11.777Z,50.37
2018-11-13T03:15:46.318Z,55.10
2018-11-13T03:18:20.858Z,53.10
2018-11-13T03:20:55.439Z,54.27
2018-11-13T03:23:30.110Z,59.23
2018-11-13T03:26:05.426Z,55.07
2018-11-13T03:28:40.024Z,59.00
2018-11-13T03:31:14.925Z,55.97
2018-11-13T03:33:49.356Z,55.03
2018-11-13T03:36:24.027Z,64.57
2018-11-13T03:38:58.786Z,65.83
2018-11-13T03:41:33.553Z,62.70
2018-11-13T03:44:09.355Z,59.53
2018-11-13T03:46:44.109Z,65.33
2018-11-13T03:49:18.722Z,59.07
2018-11-13T03:51:53.302Z,63.80
2018-11-13T03:54:27.765Z,65.67
2018-11-13T03:57:02.445Z,54.03
2018-11-13T03:59:43.499Z,59.60
2018-11-13T04:02:18.002Z,59.13
2018-11-13T04:04:52.629Z,58.73
2018-11-13T04:07:27.279Z,56.13
2018-11-13T04:10:01.734Z,60.33
2018-11-13T04:12:36.313Z,54.63
2018-11-13T04:15:12.448Z,59.67
2018-11-13T04:17:47.011Z,59.10
2018-11-13T04:20:22.525Z,64.47
2018-11-13T04:22:56.962Z,58.27
2018-11-13T04:25:31.570Z,59.70
2018-11-13T04:28:06.145Z,63.87
2018-11-13T04:30:40.722Z,53.40
2018-11-13T04:33:15.434Z,58.10
2018-11-13T04:35:49.866Z,63.20
2018-11-13T04:38:24.394Z,54.70
2018-11-13T04:40:59.066Z,65.77
2018-11-13T04:43:33.595Z,56.30
2018-11-13T04:46:08.767Z,67.30
2018-11-13T04:48:43.250Z,71.70
2018-11-13T04:51:17.794Z,61.43
2018-11-13T04:53:52.465Z,64.90
2018-11-13T04:56:26.960Z,62.33
2018-11-13T04:59:01.579Z,72.30
2018-11-13T05:01:36.239Z,65.17
2018-11-13T05:04:10.666Z,69.47
2018-11-13T05:06:45.321Z,73.80
2018-11-13T05:09:20.131Z,70.33
2018-11-13T05:11:54.742Z,67.97
2018-11-13T05:14:29.299Z,62.73
2018-11-13T05:17:03.909Z,67.20
2018-11-13T05:19:38.555Z,64.63
2018-11-13T05:22:12.908Z,65.80
2018-11-13T05:24:47.542Z,66.90
2018-11-13T05:27:21.959Z,64.13
2018-11-13T05:29:56.530Z,61.63
2018-11-13T05:39:35.126Z,71.83
2018-11-13T05:42:09.754Z,75.37
2018-11-13T05:44:44.265Z,68.57
2018-11-13T05:47:18.985Z,75.60
2018-11-13T05:49:53.493Z,73.00
2018-11-13T05:52:28.103Z,82.47
2018-11-13T05:55:02.869Z,80.30
2018-11-13T05:57:37.734Z,75.90
2018-11-13T06:00:15.102Z,77.57
2018-11-13T06:02:49.677Z,76.17
2018-11-13T06:05:24.158Z,78.73
2018-11-13T06:07:59.425Z,73.60
2018-11-13T06:10:34.042Z,59.20
2018-11-13T06:13:08.654Z,79.47
2018-11-13T06:15:43.429Z,67.27
2018-11-13T06:18:19.084Z,61.43
2018-11-13T06:20:53.605Z,61.43
2018-11-13T06:23:28.182Z,55.27
2018-11-13T06:26:02.874Z,56.40
2018-11-13T06:28:37.501Z,49.87
2018-11-13T06:31:17.640Z,55.60
2018-11-13T06:33:52.166Z,52.87
2018-11-13T06:36:26.994Z,55.73
2018-11-13T06:39:01.771Z,47.03
2018-11-13T06:41:36.349Z,49.00
2018-11-13T06:44:11.155Z,50.10
2018-11-13T06:46:45.895Z,47.10
2018-11-13T06:49:20.669Z,41.40
2018-11-13T06:51:55.170Z,52.43
2018-11-13T06:55:12.290Z,52.70
2018-11-13T06:57:47.194Z,41.37
2018-11-13T07:00:22.088Z,39.93
2018-11-13T07:02:56.575Z,45.40
2018-11-13T07:05:31.250Z,45.30
2018-11-13T07:08:05.958Z,39.53
2018-11-13T07:10:41.927Z,41.80
2018-11-13T07:13:16.554Z,41.07
2018-11-13T07:15:51.149Z,41.73
2018-11-13T07:18:25.955Z,38.10
2018-11-13T07:21:00.738Z,34.00
2018-11-13T07:23:35.282Z,37.73
2018-11-13T07:26:09.789Z,39.37
2018-11-13T07:28:44.402Z,30.33
2018-11-13T07:31:19.057Z,34.57
2018-11-13T07:33:53.767Z,30.20
2018-11-13T07:36:28.302Z,39.37
2018-11-13T07:39:03.173Z,40.20
2018-11-13T07:41:37.794Z,37.33
2018-11-13T07:44:12.431Z,40.83
2018-11-13T07:46:47.334Z,40.33
2018-11-13T07:49:21.790Z,37.00
2018-11-13T07:51:56.347Z,38.80
2018-11-13T07:54:30.955Z,38.10
2018-11-13T07:57:06.722Z,29.50
2018-11-13T07:59:41.316Z,29.60
2018-11-13T08:02:15.954Z,31.43
2018-11-13T08:04:50.601Z,31.13
2018-11-13T08:07:25.338Z,30.63
2018-11-13T08:10:00.075Z,26.97
2018-11-13T08:12:34.679Z,31.93
2018-11-13T08:15:11.374Z,27.13
2018-11-13T08:17:45.842Z,21.77
2018-11-13T08:20:20.362Z,21.60
2018-11-13T08:22:55.093Z,20.60
2018-11-13T08:25:29.780Z,23.63
2018-11-13T08:28:04.409Z,19.67
2018-11-13T08:30:38.797Z,17.53
2018-11-13T08:33:13.480Z,21.57
2018-11-13T08:35:48.127Z,23.83
2018-11-13T08:38:22.606Z,20.33
2018-11-13T08:40:57.112Z,17.40
2018-11-13T08:43:31.701Z,16.40
2018-11-13T08:46:06.508Z,25.33
2018-11-13T08:48:41.241Z,18.40
2018-11-13T08:51:16.109Z,16.23
2018-11-13T08:53:50.511Z,19.03
2018-11-13T08:56:25.938Z,13.97
2018-11-13T08:59:00.452Z,11.27
2018-11-13T09:01:35.062Z,13.37
2018-11-13T09:04:09.882Z,8.77
2018-11-13T09:06:44.350Z,9.00
2018-11-13T09:09:18.820Z,7.57
2018-11-13T09:11:53.518Z,7.00
2018-11-13T09:14:28.057Z,6.77
2018-11-13T09:17:02.681Z,8.03
2018-11-13T09:19:37.429Z,7.87
2018-11-13T09:22:11.868Z,7.93
2018-11-13T09:24:46.553Z,3.73
2018-11-13T09:27:21.177Z,7.73
2018-11-13T09:29:55.895Z,4.80
2018-11-13T09:32:30.527Z,5.10
2018-11-13T09:35:05.722Z,3.77
2018-11-13T09:37:40.281Z,5.03
2018-11-13T09:40:18.244Z,5.20
2018-11-13T09:42:52.723Z,3.57
2018-11-13T09:45:27.098Z,5.60
2018-11-13T09:48:01.725Z,4.60
2018-11-13T09:50:36.732Z,3.13
2018-11-13T09:53:11.217Z,8.23
2018-11-13T09:55:45.655Z,3.40
2018-11-13T09:58:20.225Z,5.60
2018-11-13T10:00:54.939Z,4.53
2018-11-13T10:03:30.035Z,5.80
2018-11-13T10:06:04.001Z,4.23
2018-11-13T10:08:38.466Z,5.60
2018-11-13T10:11:13.241Z,4.77
2018-11-13T10:13:47.814Z,5.90
2018-11-13T10:16:22.251Z,3.93
2018-11-13T10:18:57.000Z,6.63
2018-11-13T10:21:31.606Z,7.90
2018-11-13T10:24:08.214Z,4.70
2018-11-13T10:26:42.793Z,4.90
2018-11-13T10:29:17.370Z,6.10
2018-11-13T10:31:51.945Z,6.13
2018-11-13T10:34:26.480Z,4.50
2018-11-13T10:37:02.019Z,7.80
2018-11-13T10:39:37.182Z,6.80
2018-11-13T10:42:11.726Z,9.87
2018-11-13T10:44:46.281Z,3.97
2018-11-13T10:47:20.917Z,4.17
2018-11-13T10:49:55.514Z,5.80
2018-11-13T10:52:29.989Z,4.30
2018-11-13T10:55:05.047Z,7.30
2018-11-13T10:57:40.349Z,4.43
2018-11-13T11:00:20.865Z,5.90
2018-11-13T11:03:00.949Z,6.10
2018-11-13T11:05:35.434Z,6.50
2018-11-13T11:08:10.233Z,8.37
2018-11-13T11:10:44.709Z,7.50
2018-11-13T11:13:19.526Z,5.73
2018-11-13T11:15:53.912Z,8.73
2018-11-13T11:18:28.377Z,5.23
2018-11-13T11:21:02.898Z,9.20
2018-11-13T11:23:37.594Z,6.63
2018-11-13T11:26:11.976Z,7.33
2018-11-13T11:28:46.561Z,9.60
2018-11-13T11:31:21.081Z,5.57
2018-11-13T11:33:55.773Z,12.23
2018-11-13T11:36:30.453Z,6.77
2018-11-13T11:39:07.750Z,8.20
2018-11-13T11:41:42.492Z,11.27
2018-11-13T11:44:17.203Z,6.83
2018-11-13T11:46:52.097Z,8.17
2018-11-13T11:49:26.640Z,6.03
2018-11-13T11:52:01.254Z,9.53
2018-11-13T11:54:35.693Z,6.50
2018-11-13T11:57:10.383Z,8.53
2018-11-13T11:59:44.922Z,6.80
2018-11-13T12:02:19.931Z,6.80
2018-11-13T12:04:54.514Z,6.07
2018-11-13T12:07:29.496Z,7.63
2018-11-13T12:10:06.924Z,7.07
2018-11-13T12:12:41.698Z,6.37
2018-11-13T12:15:16.189Z,5.97
2018-11-13T12:17:50.696Z,9.70
2018-11-13T12:20:25.365Z,9.30
2018-11-13T12:22:59.954Z,5.10
2018-11-13T12:25:34.701Z,8.70
2018-11-13T12:28:09.300Z,9.17
2018-11-13T12:30:45.357Z,11.53
2018-11-13T12:33:19.922Z,7.73
2018-11-13T12:35:54.525Z,4.40
2018-11-13T12:38:29.162Z,6.33
2018-11-13T12:41:03.842Z,16.07
2018-11-13T12:43:38.413Z,4.57
2018-11-13T12:46:13.643Z,10.53
2018-11-13T12:48:49.027Z,5.43
2018-11-13T12:51:29.777Z,5.07
2018-11-13T12:54:04.534Z,7.60
2018-11-13T12:56:38.962Z,4.73
2018-11-13T12:59:13.502Z,4.57
2018-11-13T13:01:48.057Z,10.53
2018-11-13T13:04:22.757Z,8.67
2018-11-13T13:06:57.169Z,9.87
2018-11-13T13:09:31.658Z,7.90
2018-11-13T13:12:07.369Z,5.07
2018-11-13T13:14:42.014Z,4.17
2018-11-13T13:17:17.602Z,7.10
2018-11-13T13:19:52.284Z,6.23
2018-11-13T13:22:27.850Z,6.50
2018-11-13T13:25:06.214Z,10.97
2018-11-13T13:27:40.743Z,9.63
2018-11-13T13:30:17.558Z,6.10
2018-11-13T13:32:52.669Z,6.70
2018-11-13T13:35:44.205Z,3.60
2018-11-13T13:38:18.964Z,6.57
2018-11-13T13:41:01.210Z,2.13
2018-11-13T13:43:36.400Z,1.87
2018-11-13T13:46:11.007Z,4.37
2018-11-13T13:48:45.547Z,1.70
2018-11-13T13:51:20.106Z,6.60
2018-11-13T13:53:54.670Z,2.90
2018-11-13T13:56:29.211Z,3.27
2018-11-13T13:59:03.714Z,2.17
2018-11-13T14:01:38.214Z,2.90
2018-11-13T14:04:12.739Z,1.37
2018-11-13T14:06:47.317Z,11.10
2018-11-13T14:09:22.028Z,3.57
2018-11-13T14:11:56.292Z,5.83
2018-11-13T14:14:30.861Z,3.73
2018-11-13T14:17:05.348Z,2.43
2018-11-13T14:19:40.932Z,3.50
2018-11-13T14:22:15.747Z,2.63
2018-11-13T14:24:50.550Z,5.20
2018-11-13T14:27:25.077Z,3.33
2018-11-13T14:29:59.702Z,3.10
2018-11-13T14:32:34.247Z,3.13
2018-11-13T14:35:08.823Z,3.57
2018-11-13T14:37:44.004Z,5.53
2018-11-13T14:40:21.354Z,3.07
2018-11-13T14:42:55.953Z,3.93
2018-11-13T14:45:30.646Z,4.27
2018-11-13T14:48:05.617Z,4.67
2018-11-13T14:50:40.725Z,10.60
2018-11-13T14:53:15.416Z,7.50
2018-11-13T14:55:50.550Z,3.90
2018-11-13T14:58:25.161Z,4.43
2018-11-13T15:01:01.730Z,8.00
2018-11-13T15:03:37.731Z,6.53
2018-11-13T15:06:12.643Z,6.30
2018-11-13T15:08:47.031Z,4.73
2018-11-13T15:11:21.630Z,7.23
2018-11-13T15:13:56.285Z,7.90
2018-11-13T15:16:30.861Z,7.00
2018-11-13T15:19:05.720Z,4.20
2018-11-13T15:21:40.313Z,7.77
2018-11-13T15:24:14.866Z,8.40
2018-11-13T15:26:49.537Z,6.87
2018-11-13T15:29:24.059Z,12.43
2018-11-13T15:31:58.739Z,7.23
2018-11-13T15:34:33.143Z,11.20
2018-11-13T15:37:07.814Z,9.03
2018-11-13T15:39:42.284Z,6.53
2018-11-13T15:42:17.042Z,15.17
2018-11-13T15:44:51.715Z,5.97
2018-11-13T15:47:25.882Z,11.43
2018-11-13T15:50:00.441Z,10.77
2018-11-13T15:52:35.028Z,9.43
2018-11-13T15:55:10.666Z,4.90
2018-11-13T15:57:45.642Z,6.80
2018-11-13T16:00:22.833Z,5.57
2018-11-13T16:02:58.562Z,5.83
2018-11-13T16:05:35.042Z,13.40
2018-11-13T16:08:10.241Z,16.53
2018-11-13T16:10:44.875Z,6.80
2018-11-13T16:13:19.463Z,13.37
2018-11-13T16:15:54.024Z,4.80
2018-11-13T16:18:29.634Z,3.80
2018-11-13T16:21:04.431Z,3.67
2018-11-13T16:23:39.167Z,8.80
2018-11-13T16:26:13.681Z,10.60
2018-11-13T16:28:48.300Z,11.70
2018-11-13T16:31:22.988Z,7.73
2018-11-13T16:33:57.615Z,5.10
2018-11-13T16:36:32.715Z,13.20
2018-11-13T16:39:11.643Z,14.27
2018-11-13T16:41:46.214Z,9.07
2018-11-13T16:44:20.624Z,9.53
2018-11-13T16:46:55.173Z,9.13
2018-11-13T16:49:29.618Z,6.73
2018-11-13T16:52:04.417Z,8.67
2018-11-13T16:54:44.468Z,5.07
2018-11-13T16:57:20.030Z,11.70
2018-11-13T16:59:54.743Z,10.23
2018-11-13T17:02:29.375Z,8.63
2018-11-13T17:05:04.000Z,9.40
2018-11-13T17:07:39.715Z,12.63
2018-11-13T17:10:15.961Z,5.63
2018-11-13T17:12:50.765Z,14.90
2018-11-13T17:15:26.978Z,8.60
2018-11-13T17:18:02.545Z,10.17
2018-11-13T17:20:36.994Z,7.43
2018-11-13T17:25:52.709Z,4.93
2018-11-13T17:28:27.226Z,12.40
2018-11-13T17:31:03.610Z,12.33
2018-11-13T17:33:38.131Z,8.83
2018-11-13T17:36:13.450Z,9.43
2018-11-13T17:38:47.983Z,7.03
2018-11-13T17:41:22.496Z,11.73
2018-11-13T17:43:57.900Z,8.47
2018-11-13T17:47:35.630Z,18.80
2018-11-13T17:50:14.766Z,11.40
2018-11-13T17:52:50.032Z,17.77
2018-11-13T17:55:25.016Z,7.87
2018-11-13T17:58:01.968Z,15.87
2018-11-13T18:00:38.006Z,6.87
2018-11-13T18:03:14.050Z,6.73
2018-11-13T18:05:49.065Z,7.63
2018-11-13T18:08:23.695Z,8.93
2018-11-13T18:10:58.281Z,15.50
2018-11-13T18:13:32.757Z,6.50
2018-11-13T18:16:07.310Z,10.83
2018-11-13T18:18:41.881Z,11.07
2018-11-13T18:21:17.201Z,12.37
2018-11-13T18:23:51.778Z,18.23
2018-11-13T18:26:26.490Z,10.33
2018-11-13T18:29:00.998Z,6.77
2018-11-13T18:31:35.595Z,11.90
2018-11-13T18:34:10.140Z,11.50
2018-11-13T18:36:44.630Z,19.20
2018-11-13T18:39:19.093Z,8.90
2018-11-13T18:41:53.726Z,16.90
2018-11-13T18:44:28.176Z,10.43
2018-11-13T18:47:03.685Z,10.60
2018-11-13T18:49:38.231Z,7.83
2018-11-13T18:52:12.586Z,9.70
2018-11-13T18:54:48.066Z,7.70
2018-11-13T18:57:22.727Z,11.10
2018-11-13T18:59:57.249Z,7.97
2018-11-13T19:02:32.601Z,8.53
2018-11-13T19:05:08.063Z,7.47
2018-11-13T19:07:43.175Z,8.83
2018-11-13T19:10:25.911Z,18.97
2018-11-13T19:13:04.985Z,16.43
2018-11-13T19:15:41.166Z,9.93
2018-11-13T19:18:18.779Z,5.17
2018-11-13T19:20:53.604Z,9.60
2018-11-13T19:23:29.298Z,8.63
2018-11-13T19:26:03.705Z,5.50
2018-11-13T19:28:38.226Z,14.53
2018-11-13T19:31:12.685Z,7.70
2018-11-13T19:33:47.211Z,8.20
2018-11-13T19:36:22.159Z,10.40
2018-11-13T19:38:58.173Z,10.13
2018-11-13T19:41:32.951Z,10.20
2018-11-13T19:44:07.641Z,10.00
2018-11-13T19:46:42.152Z,5.60
2018-11-13T19:49:17.607Z,12.03
2018-11-13T19:51:52.435Z,12.57
2018-11-13T19:54:27.187Z,9.73
2018-11-13T19:57:02.854Z,21.90
2018-11-13T19:59:38.282Z,17.17
2018-11-13T20:02:13.448Z,16.77
2018-11-13T20:04:47.994Z,8.03
2018-11-13T20:07:22.629Z,10.50
2018-11-13T20:09:57.257Z,7.77
2018-11-13T20:12:31.821Z,15.50
2018-11-13T20:15:07.013Z,8.80
2018-11-13T20:17:45.201Z,9.37
2018-11-13T20:20:21.605Z,10.60
2018-11-13T20:22:56.546Z,12.97
2018-11-13T20:25:32.386Z,11.53
2018-11-13T20:28:06.962Z,9.47
2018-11-13T20:30:42.474Z,9.43
2018-11-13T20:33:17.144Z,14.20
2018-11-13T20:35:52.085Z,16.00
2018-11-13T20:38:27.528Z,11.70
2018-11-13T20:41:02.357Z,8.73
2018-11-13T20:43:36.930Z,17.80
2018-11-13T20:46:12.576Z,9.67
2018-11-13T20:48:47.093Z,20.37
2018-11-13T20:51:21.871Z,9.77
2018-11-13T20:55:00.695Z,14.00
2018-11-13T20:57:35.298Z,13.63
2018-11-13T21:00:11.450Z,11.30
2018-11-13T21:02:49.163Z,16.17
2018-11-13T21:05:23.934Z,14.93
2018-11-13T21:07:58.512Z,18.77
2018-11-13T21:10:38.064Z,16.47
2018-11-13T21:13:12.454Z,14.30
2018-11-13T21:15:46.941Z,10.50
2018-11-13T21:18:21.659Z,19.20
2018-11-13T21:20:56.430Z,13.40
2018-11-13T21:23:30.913Z,17.40
2018-11-13T21:26:05.835Z,13.63
2018-11-13T21:28:40.393Z,21.77
2018-11-13T21:31:14.870Z,11.90
2018-11-13T21:33:49.288Z,15.07
2018-11-13T21:36:23.751Z,13.00
2018-11-13T21:38:58.302Z,14.73
2018-11-13T21:41:32.654Z,19.27
2018-11-13T21:44:07.454Z,22.80
2018-11-13T21:46:42.251Z,16.93
2018-11-13T21:49:16.738Z,17.10
2018-11-13T21:51:51.335Z,20.03
2018-11-13T21:54:26.006Z,17.97
2018-11-13T21:57:00.633Z,16.30
2018-11-13T21:59:35.118Z,18.47
2018-11-13T22:02:09.659Z,16.90
2018-11-13T22:04:45.489Z,16.37
2018-11-13T22:07:19.886Z,15.63
2018-11-13T22:09:54.382Z,16.03
2018-11-13T22:12:28.905Z,13.67
2018-11-13T22:15:03.288Z,12.93
2018-11-13T22:17:38.083Z,23.20
2018-11-13T22:20:13.857Z,14.93
2018-11-13T22:22:49.327Z,16.80
2018-11-13T22:25:24.661Z,17.60
2018-11-13T22:27:59.694Z,16.60
2018-11-13T22:30:34.188Z,19.73
2018-11-13T22:33:09.006Z,21.73
2018-11-13T22:35:43.505Z,19.43
2018-11-13T22:38:18.840Z,18.73
2018-11-13T22:40:54.523Z,21.53
2018-11-13T22:43:28.858Z,19.83
2018-11-13T22:46:03.414Z,20.93
2018-11-13T22:48:38.077Z,26.13
2018-11-13T22:51:12.653Z,23.77
2018-11-13T22:53:47.065Z,16.03
2018-11-13T22:56:21.518Z,19.40
2018-11-13T22:58:56.200Z,27.57
2018-11-13T23:01:30.628Z,24.83
2018-11-13T23:04:05.349Z,15.67
2018-11-13T23:06:40.029Z,22.40
2018-11-13T23:09:15.346Z,22.63
2018-11-13T23:11:52.113Z,20.60
2018-11-13T23:14:26.697Z,24.23
2018-11-13T23:17:01.214Z,33.57
2018-11-13T23:19:35.776Z,28.13
2018-11-13T23:22:10.357Z,25.87
2018-11-13T23:24:44.826Z,20.60
2018-11-13T23:27:19.337Z,19.13
2018-11-13T23:29:53.998Z,34.33
2018-11-13T23:32:28.414Z,21.20
2018-11-13T23:35:03.225Z,22.03
2018-11-13T23:37:37.614Z,23.83
2018-11-13T23:40:17.526Z,27.43
2018-11-13T23:42:53.114Z,25.20
2018-11-13T23:45:27.807Z,21.17
2018-11-13T23:48:02.549Z,24.40
2018-11-13T23:50:36.974Z,24.23
2018-11-13T23:53:11.503Z,32.73
2018-11-13T23:55:46.286Z,22.50
2018-11-13T23:58:20.759Z,30.97
